<?xml version="1.0" encoding="UTF-8" standalone="no" ?>
<gpx xmlns="http://www.topografix.com/GPX/1/1" xmlns:xsi="http://www.w3.org/2001/XMLSchema-instance" xsi:schemaLocation="http://www.topografix.com/GPX/1/1 http://www.topografix.com/GPX/1/1/gpx.xsd" version="1.1" creator="VisuGPX - https://www.visugpx.com">
  <metadata>
    <name>Valmasque 1001 sentier</name>
    <desc><![CDATA[Sortie sympa à la valmasque]]></desc>
  </metadata>
  <trk>
    <name><![CDATA[Valmasque1001.22062011]]></name>
    <trkseg>
      <trkpt lat="43.61615" lon="7.04116">
        <ele>126</ele>
        <time>2011-06-22T09:13:59Z</time>
      </trkpt>
      <trkpt lat="43.61591" lon="7.04135">
        <ele>140</ele>
        <time>2011-06-22T09:14:00Z</time>
      </trkpt>
      <trkpt lat="43.61575" lon="7.04141">
        <ele>140</ele>
        <time>2011-06-22T09:14:10Z</time>
      </trkpt>
      <trkpt lat="43.6157" lon="7.04141">
        <ele>136</ele>
        <time>2011-06-22T09:14:23Z</time>
      </trkpt>
      <trkpt lat="43.6157" lon="7.04142">
        <ele>136</ele>
        <time>2011-06-22T09:14:33Z</time>
      </trkpt>
      <trkpt lat="43.61572" lon="7.04148">
        <ele>135</ele>
        <time>2011-06-22T09:14:43Z</time>
      </trkpt>
      <trkpt lat="43.61569" lon="7.04154">
        <ele>135</ele>
        <time>2011-06-22T09:14:53Z</time>
      </trkpt>
      <trkpt lat="43.61568" lon="7.04159">
        <ele>137</ele>
        <time>2011-06-22T09:15:05Z</time>
      </trkpt>
      <trkpt lat="43.61573" lon="7.04156">
        <ele>137</ele>
        <time>2011-06-22T09:15:15Z</time>
      </trkpt>
      <trkpt lat="43.6157" lon="7.04161">
        <ele>137</ele>
        <time>2011-06-22T09:15:25Z</time>
      </trkpt>
      <trkpt lat="43.61568" lon="7.04162">
        <ele>130</ele>
        <time>2011-06-22T09:15:40Z</time>
      </trkpt>
      <trkpt lat="43.61571" lon="7.04162">
        <ele>130</ele>
        <time>2011-06-22T09:15:52Z</time>
      </trkpt>
      <trkpt lat="43.61571" lon="7.04159">
        <ele>130</ele>
        <time>2011-06-22T09:16:04Z</time>
      </trkpt>
      <trkpt lat="43.6157" lon="7.04156">
        <ele>130</ele>
        <time>2011-06-22T09:16:27Z</time>
      </trkpt>
      <trkpt lat="43.6157" lon="7.04155">
        <ele>130</ele>
        <time>2011-06-22T09:16:51Z</time>
      </trkpt>
      <trkpt lat="43.61567" lon="7.04155">
        <ele>130</ele>
        <time>2011-06-22T09:17:05Z</time>
      </trkpt>
      <trkpt lat="43.61566" lon="7.04155">
        <ele>130</ele>
        <time>2011-06-22T09:17:15Z</time>
      </trkpt>
      <trkpt lat="43.6157" lon="7.04147">
        <ele>127</ele>
        <time>2011-06-22T09:17:19Z</time>
      </trkpt>
      <trkpt lat="43.61575" lon="7.04146">
        <ele>127</ele>
        <time>2011-06-22T09:17:29Z</time>
      </trkpt>
      <trkpt lat="43.61575" lon="7.0415">
        <ele>129</ele>
        <time>2011-06-22T09:17:40Z</time>
      </trkpt>
      <trkpt lat="43.61572" lon="7.04153">
        <ele>134</ele>
        <time>2011-06-22T09:18:00Z</time>
      </trkpt>
      <trkpt lat="43.61571" lon="7.04155">
        <ele>134</ele>
        <time>2011-06-22T09:18:10Z</time>
      </trkpt>
      <trkpt lat="43.61571" lon="7.04155">
        <ele>134</ele>
        <time>2011-06-22T09:18:25Z</time>
      </trkpt>
      <trkpt lat="43.61572" lon="7.04151">
        <ele>129</ele>
        <time>2011-06-22T09:18:41Z</time>
      </trkpt>
      <trkpt lat="43.61568" lon="7.04157">
        <ele>130</ele>
        <time>2011-06-22T09:19:05Z</time>
      </trkpt>
      <trkpt lat="43.61567" lon="7.04158">
        <ele>130</ele>
        <time>2011-06-22T09:19:20Z</time>
      </trkpt>
      <trkpt lat="43.61567" lon="7.0416">
        <ele>130</ele>
        <time>2011-06-22T09:19:30Z</time>
      </trkpt>
      <trkpt lat="43.61566" lon="7.04158">
        <ele>132</ele>
        <time>2011-06-22T09:19:37Z</time>
      </trkpt>
      <trkpt lat="43.61567" lon="7.04158">
        <ele>131</ele>
        <time>2011-06-22T09:19:48Z</time>
      </trkpt>
      <trkpt lat="43.6157" lon="7.04157">
        <ele>137</ele>
        <time>2011-06-22T09:20:10Z</time>
      </trkpt>
      <trkpt lat="43.61569" lon="7.04157">
        <ele>140</ele>
        <time>2011-06-22T09:20:11Z</time>
      </trkpt>
      <trkpt lat="43.61565" lon="7.04157">
        <ele>139</ele>
        <time>2011-06-22T09:20:22Z</time>
      </trkpt>
      <trkpt lat="43.61568" lon="7.04159">
        <ele>138</ele>
        <time>2011-06-22T09:20:32Z</time>
      </trkpt>
      <trkpt lat="43.61565" lon="7.0416">
        <ele>133</ele>
        <time>2011-06-22T09:20:53Z</time>
      </trkpt>
      <trkpt lat="43.61566" lon="7.04156">
        <ele>123</ele>
        <time>2011-06-22T09:21:03Z</time>
      </trkpt>
      <trkpt lat="43.61572" lon="7.04157">
        <ele>123</ele>
        <time>2011-06-22T09:21:13Z</time>
      </trkpt>
      <trkpt lat="43.61574" lon="7.04159">
        <ele>128</ele>
        <time>2011-06-22T09:21:26Z</time>
      </trkpt>
      <trkpt lat="43.61573" lon="7.04164">
        <ele>135</ele>
        <time>2011-06-22T09:21:41Z</time>
      </trkpt>
      <trkpt lat="43.61576" lon="7.04163">
        <ele>140</ele>
        <time>2011-06-22T09:21:54Z</time>
      </trkpt>
      <trkpt lat="43.61576" lon="7.04161">
        <ele>143</ele>
        <time>2011-06-22T09:22:11Z</time>
      </trkpt>
      <trkpt lat="43.61573" lon="7.04158">
        <ele>140</ele>
        <time>2011-06-22T09:22:24Z</time>
      </trkpt>
      <trkpt lat="43.6157" lon="7.04162">
        <ele>140</ele>
        <time>2011-06-22T09:22:48Z</time>
      </trkpt>
      <trkpt lat="43.61569" lon="7.04158">
        <ele>138</ele>
        <time>2011-06-22T09:22:58Z</time>
      </trkpt>
      <trkpt lat="43.61565" lon="7.04157">
        <ele>128</ele>
        <time>2011-06-22T09:23:08Z</time>
      </trkpt>
      <trkpt lat="43.61546" lon="7.04174">
        <ele>123</ele>
        <time>2011-06-22T09:23:18Z</time>
      </trkpt>
      <trkpt lat="43.61527" lon="7.04175">
        <ele>123</ele>
        <time>2011-06-22T09:23:28Z</time>
      </trkpt>
      <trkpt lat="43.61494" lon="7.04193">
        <ele>121</ele>
        <time>2011-06-22T09:23:38Z</time>
      </trkpt>
      <trkpt lat="43.61476" lon="7.04218">
        <ele>121</ele>
        <time>2011-06-22T09:23:48Z</time>
      </trkpt>
      <trkpt lat="43.61462" lon="7.04236">
        <ele>122</ele>
        <time>2011-06-22T09:23:59Z</time>
      </trkpt>
      <trkpt lat="43.61458" lon="7.04249">
        <ele>124</ele>
        <time>2011-06-22T09:24:09Z</time>
      </trkpt>
      <trkpt lat="43.61439" lon="7.04267">
        <ele>124</ele>
        <time>2011-06-22T09:24:19Z</time>
      </trkpt>
      <trkpt lat="43.6143" lon="7.04268">
        <ele>134</ele>
        <time>2011-06-22T09:24:29Z</time>
      </trkpt>
      <trkpt lat="43.61424" lon="7.0425">
        <ele>138</ele>
        <time>2011-06-22T09:24:40Z</time>
      </trkpt>
      <trkpt lat="43.61425" lon="7.04232">
        <ele>139</ele>
        <time>2011-06-22T09:24:50Z</time>
      </trkpt>
      <trkpt lat="43.61426" lon="7.04204">
        <ele>141</ele>
        <time>2011-06-22T09:25:00Z</time>
      </trkpt>
      <trkpt lat="43.61425" lon="7.04161">
        <ele>142</ele>
        <time>2011-06-22T09:25:10Z</time>
      </trkpt>
      <trkpt lat="43.61411" lon="7.04112">
        <ele>138</ele>
        <time>2011-06-22T09:25:21Z</time>
      </trkpt>
      <trkpt lat="43.61408" lon="7.0406">
        <ele>135</ele>
        <time>2011-06-22T09:25:31Z</time>
      </trkpt>
      <trkpt lat="43.61384" lon="7.04019">
        <ele>131</ele>
        <time>2011-06-22T09:25:41Z</time>
      </trkpt>
      <trkpt lat="43.6134" lon="7.03993">
        <ele>129</ele>
        <time>2011-06-22T09:25:51Z</time>
      </trkpt>
      <trkpt lat="43.61315" lon="7.03952">
        <ele>129</ele>
        <time>2011-06-22T09:26:01Z</time>
      </trkpt>
      <trkpt lat="43.61287" lon="7.03917">
        <ele>129</ele>
        <time>2011-06-22T09:26:11Z</time>
      </trkpt>
      <trkpt lat="43.61274" lon="7.03888">
        <ele>130</ele>
        <time>2011-06-22T09:26:21Z</time>
      </trkpt>
      <trkpt lat="43.61267" lon="7.03852">
        <ele>131</ele>
        <time>2011-06-22T09:26:31Z</time>
      </trkpt>
      <trkpt lat="43.61263" lon="7.03814">
        <ele>132</ele>
        <time>2011-06-22T09:26:41Z</time>
      </trkpt>
      <trkpt lat="43.61242" lon="7.03786">
        <ele>134</ele>
        <time>2011-06-22T09:26:51Z</time>
      </trkpt>
      <trkpt lat="43.61218" lon="7.03783">
        <ele>134</ele>
        <time>2011-06-22T09:27:02Z</time>
      </trkpt>
      <trkpt lat="43.61205" lon="7.03777">
        <ele>134</ele>
        <time>2011-06-22T09:27:12Z</time>
      </trkpt>
      <trkpt lat="43.61185" lon="7.0376">
        <ele>134</ele>
        <time>2011-06-22T09:27:22Z</time>
      </trkpt>
      <trkpt lat="43.61169" lon="7.03738">
        <ele>134</ele>
        <time>2011-06-22T09:27:32Z</time>
      </trkpt>
      <trkpt lat="43.61152" lon="7.03714">
        <ele>134</ele>
        <time>2011-06-22T09:27:42Z</time>
      </trkpt>
      <trkpt lat="43.61145" lon="7.0369">
        <ele>134</ele>
        <time>2011-06-22T09:27:52Z</time>
      </trkpt>
      <trkpt lat="43.61122" lon="7.03673">
        <ele>131</ele>
        <time>2011-06-22T09:28:02Z</time>
      </trkpt>
      <trkpt lat="43.61107" lon="7.03648">
        <ele>130</ele>
        <time>2011-06-22T09:28:12Z</time>
      </trkpt>
      <trkpt lat="43.61076" lon="7.03624">
        <ele>131</ele>
        <time>2011-06-22T09:28:22Z</time>
      </trkpt>
      <trkpt lat="43.61049" lon="7.03607">
        <ele>132</ele>
        <time>2011-06-22T09:28:32Z</time>
      </trkpt>
      <trkpt lat="43.61027" lon="7.03589">
        <ele>133</ele>
        <time>2011-06-22T09:28:42Z</time>
      </trkpt>
      <trkpt lat="43.61013" lon="7.03582">
        <ele>141</ele>
        <time>2011-06-22T09:28:53Z</time>
      </trkpt>
      <trkpt lat="43.61014" lon="7.0358">
        <ele>139</ele>
        <time>2011-06-22T09:29:10Z</time>
      </trkpt>
      <trkpt lat="43.60999" lon="7.03564">
        <ele>137</ele>
        <time>2011-06-22T09:29:20Z</time>
      </trkpt>
      <trkpt lat="43.60986" lon="7.03553">
        <ele>137</ele>
        <time>2011-06-22T09:29:32Z</time>
      </trkpt>
      <trkpt lat="43.60983" lon="7.03551">
        <ele>141</ele>
        <time>2011-06-22T09:29:33Z</time>
      </trkpt>
      <trkpt lat="43.60978" lon="7.03547">
        <ele>150</ele>
        <time>2011-06-22T09:29:49Z</time>
      </trkpt>
      <trkpt lat="43.60971" lon="7.03532">
        <ele>151</ele>
        <time>2011-06-22T09:29:59Z</time>
      </trkpt>
      <trkpt lat="43.60949" lon="7.03509">
        <ele>149</ele>
        <time>2011-06-22T09:30:09Z</time>
      </trkpt>
      <trkpt lat="43.60932" lon="7.0349">
        <ele>149</ele>
        <time>2011-06-22T09:30:19Z</time>
      </trkpt>
      <trkpt lat="43.6093" lon="7.03479">
        <ele>149</ele>
        <time>2011-06-22T09:30:30Z</time>
      </trkpt>
      <trkpt lat="43.60922" lon="7.03469">
        <ele>149</ele>
        <time>2011-06-22T09:30:40Z</time>
      </trkpt>
      <trkpt lat="43.60916" lon="7.03455">
        <ele>149</ele>
        <time>2011-06-22T09:30:50Z</time>
      </trkpt>
      <trkpt lat="43.60901" lon="7.03443">
        <ele>152</ele>
        <time>2011-06-22T09:31:00Z</time>
      </trkpt>
      <trkpt lat="43.60888" lon="7.03437">
        <ele>152</ele>
        <time>2011-06-22T09:31:10Z</time>
      </trkpt>
      <trkpt lat="43.60863" lon="7.03433">
        <ele>151</ele>
        <time>2011-06-22T09:31:20Z</time>
      </trkpt>
      <trkpt lat="43.60864" lon="7.03398">
        <ele>148</ele>
        <time>2011-06-22T09:31:30Z</time>
      </trkpt>
      <trkpt lat="43.60861" lon="7.03395">
        <ele>148</ele>
        <time>2011-06-22T09:31:40Z</time>
      </trkpt>
      <trkpt lat="43.60862" lon="7.03392">
        <ele>146</ele>
        <time>2011-06-22T09:31:51Z</time>
      </trkpt>
      <trkpt lat="43.60855" lon="7.03354">
        <ele>146</ele>
        <time>2011-06-22T09:32:01Z</time>
      </trkpt>
      <trkpt lat="43.60826" lon="7.03314">
        <ele>146</ele>
        <time>2011-06-22T09:32:11Z</time>
      </trkpt>
      <trkpt lat="43.60803" lon="7.03273">
        <ele>145</ele>
        <time>2011-06-22T09:32:21Z</time>
      </trkpt>
      <trkpt lat="43.60775" lon="7.03235">
        <ele>144</ele>
        <time>2011-06-22T09:32:31Z</time>
      </trkpt>
      <trkpt lat="43.60745" lon="7.03201">
        <ele>143</ele>
        <time>2011-06-22T09:32:41Z</time>
      </trkpt>
      <trkpt lat="43.60732" lon="7.03156">
        <ele>143</ele>
        <time>2011-06-22T09:32:51Z</time>
      </trkpt>
      <trkpt lat="43.6071" lon="7.03103">
        <ele>148</ele>
        <time>2011-06-22T09:33:02Z</time>
      </trkpt>
      <trkpt lat="43.60677" lon="7.03068">
        <ele>148</ele>
        <time>2011-06-22T09:33:12Z</time>
      </trkpt>
      <trkpt lat="43.60639" lon="7.0304">
        <ele>148</ele>
        <time>2011-06-22T09:33:23Z</time>
      </trkpt>
      <trkpt lat="43.60609" lon="7.02993">
        <ele>148</ele>
        <time>2011-06-22T09:33:34Z</time>
      </trkpt>
      <trkpt lat="43.60579" lon="7.02959">
        <ele>150</ele>
        <time>2011-06-22T09:33:44Z</time>
      </trkpt>
      <trkpt lat="43.60554" lon="7.02907">
        <ele>155</ele>
        <time>2011-06-22T09:33:54Z</time>
      </trkpt>
      <trkpt lat="43.60525" lon="7.02858">
        <ele>156</ele>
        <time>2011-06-22T09:34:04Z</time>
      </trkpt>
      <trkpt lat="43.60494" lon="7.02837">
        <ele>156</ele>
        <time>2011-06-22T09:34:14Z</time>
      </trkpt>
      <trkpt lat="43.60461" lon="7.02834">
        <ele>156</ele>
        <time>2011-06-22T09:34:24Z</time>
      </trkpt>
      <trkpt lat="43.60432" lon="7.0282">
        <ele>161</ele>
        <time>2011-06-22T09:34:34Z</time>
      </trkpt>
      <trkpt lat="43.604" lon="7.02809">
        <ele>162</ele>
        <time>2011-06-22T09:34:44Z</time>
      </trkpt>
      <trkpt lat="43.60359" lon="7.02804">
        <ele>165</ele>
        <time>2011-06-22T09:34:54Z</time>
      </trkpt>
      <trkpt lat="43.60321" lon="7.02804">
        <ele>165</ele>
        <time>2011-06-22T09:35:04Z</time>
      </trkpt>
      <trkpt lat="43.60283" lon="7.02809">
        <ele>172</ele>
        <time>2011-06-22T09:35:15Z</time>
      </trkpt>
      <trkpt lat="43.60254" lon="7.02821">
        <ele>173</ele>
        <time>2011-06-22T09:35:25Z</time>
      </trkpt>
      <trkpt lat="43.6023" lon="7.02827">
        <ele>174</ele>
        <time>2011-06-22T09:35:35Z</time>
      </trkpt>
      <trkpt lat="43.60199" lon="7.02839">
        <ele>176</ele>
        <time>2011-06-22T09:35:45Z</time>
      </trkpt>
      <trkpt lat="43.60162" lon="7.02848">
        <ele>186</ele>
        <time>2011-06-22T09:35:55Z</time>
      </trkpt>
      <trkpt lat="43.60124" lon="7.02856">
        <ele>186</ele>
        <time>2011-06-22T09:36:05Z</time>
      </trkpt>
      <trkpt lat="43.6013" lon="7.02845">
        <ele>169</ele>
        <time>2011-06-22T09:36:19Z</time>
      </trkpt>
      <trkpt lat="43.60102" lon="7.02822">
        <ele>166</ele>
        <time>2011-06-22T09:36:29Z</time>
      </trkpt>
      <trkpt lat="43.60084" lon="7.02818">
        <ele>169</ele>
        <time>2011-06-22T09:36:39Z</time>
      </trkpt>
      <trkpt lat="43.60084" lon="7.02824">
        <ele>166</ele>
        <time>2011-06-22T09:36:49Z</time>
      </trkpt>
      <trkpt lat="43.60084" lon="7.02822">
        <ele>153</ele>
        <time>2011-06-22T09:37:00Z</time>
      </trkpt>
      <trkpt lat="43.60083" lon="7.02821">
        <ele>142</ele>
        <time>2011-06-22T09:37:16Z</time>
      </trkpt>
      <trkpt lat="43.60087" lon="7.02821">
        <ele>142</ele>
        <time>2011-06-22T09:37:30Z</time>
      </trkpt>
      <trkpt lat="43.60085" lon="7.02827">
        <ele>142</ele>
        <time>2011-06-22T09:37:40Z</time>
      </trkpt>
      <trkpt lat="43.60082" lon="7.02831">
        <ele>153</ele>
        <time>2011-06-22T09:37:52Z</time>
      </trkpt>
      <trkpt lat="43.60082" lon="7.02827">
        <ele>155</ele>
        <time>2011-06-22T09:38:03Z</time>
      </trkpt>
      <trkpt lat="43.60081" lon="7.02796">
        <ele>155</ele>
        <time>2011-06-22T09:38:13Z</time>
      </trkpt>
      <trkpt lat="43.60066" lon="7.02771">
        <ele>162</ele>
        <time>2011-06-22T09:38:24Z</time>
      </trkpt>
      <trkpt lat="43.60055" lon="7.02745">
        <ele>170</ele>
        <time>2011-06-22T09:38:35Z</time>
      </trkpt>
      <trkpt lat="43.60044" lon="7.02723">
        <ele>173</ele>
        <time>2011-06-22T09:38:45Z</time>
      </trkpt>
      <trkpt lat="43.60037" lon="7.02694">
        <ele>173</ele>
        <time>2011-06-22T09:38:55Z</time>
      </trkpt>
      <trkpt lat="43.60037" lon="7.02667">
        <ele>178</ele>
        <time>2011-06-22T09:39:05Z</time>
      </trkpt>
      <trkpt lat="43.60027" lon="7.02637">
        <ele>180</ele>
        <time>2011-06-22T09:39:15Z</time>
      </trkpt>
      <trkpt lat="43.60025" lon="7.0261">
        <ele>184</ele>
        <time>2011-06-22T09:39:25Z</time>
      </trkpt>
      <trkpt lat="43.60017" lon="7.0258">
        <ele>184</ele>
        <time>2011-06-22T09:39:35Z</time>
      </trkpt>
      <trkpt lat="43.60007" lon="7.02555">
        <ele>184</ele>
        <time>2011-06-22T09:39:45Z</time>
      </trkpt>
      <trkpt lat="43.60001" lon="7.02526">
        <ele>184</ele>
        <time>2011-06-22T09:39:55Z</time>
      </trkpt>
      <trkpt lat="43.59997" lon="7.02516">
        <ele>184</ele>
        <time>2011-06-22T09:40:06Z</time>
      </trkpt>
      <trkpt lat="43.60003" lon="7.02535">
        <ele>184</ele>
        <time>2011-06-22T09:40:16Z</time>
      </trkpt>
      <trkpt lat="43.60012" lon="7.02564">
        <ele>185</ele>
        <time>2011-06-22T09:40:26Z</time>
      </trkpt>
      <trkpt lat="43.60033" lon="7.02583">
        <ele>186</ele>
        <time>2011-06-22T09:40:36Z</time>
      </trkpt>
      <trkpt lat="43.6006" lon="7.02603">
        <ele>188</ele>
        <time>2011-06-22T09:40:46Z</time>
      </trkpt>
      <trkpt lat="43.60091" lon="7.02602">
        <ele>188</ele>
        <time>2011-06-22T09:40:56Z</time>
      </trkpt>
      <trkpt lat="43.60113" lon="7.02587">
        <ele>198</ele>
        <time>2011-06-22T09:41:06Z</time>
      </trkpt>
      <trkpt lat="43.60142" lon="7.02551">
        <ele>208</ele>
        <time>2011-06-22T09:41:16Z</time>
      </trkpt>
      <trkpt lat="43.60167" lon="7.02517">
        <ele>207</ele>
        <time>2011-06-22T09:41:26Z</time>
      </trkpt>
      <trkpt lat="43.60176" lon="7.02493">
        <ele>207</ele>
        <time>2011-06-22T09:41:36Z</time>
      </trkpt>
      <trkpt lat="43.60184" lon="7.02454">
        <ele>208</ele>
        <time>2011-06-22T09:41:46Z</time>
      </trkpt>
      <trkpt lat="43.60195" lon="7.02411">
        <ele>213</ele>
        <time>2011-06-22T09:41:56Z</time>
      </trkpt>
      <trkpt lat="43.60189" lon="7.02378">
        <ele>215</ele>
        <time>2011-06-22T09:42:06Z</time>
      </trkpt>
      <trkpt lat="43.60178" lon="7.02336">
        <ele>217</ele>
        <time>2011-06-22T09:42:16Z</time>
      </trkpt>
      <trkpt lat="43.60169" lon="7.02307">
        <ele>209</ele>
        <time>2011-06-22T09:42:26Z</time>
      </trkpt>
      <trkpt lat="43.60155" lon="7.02286">
        <ele>208</ele>
        <time>2011-06-22T09:42:36Z</time>
      </trkpt>
      <trkpt lat="43.60137" lon="7.02254">
        <ele>216</ele>
        <time>2011-06-22T09:42:46Z</time>
      </trkpt>
      <trkpt lat="43.60115" lon="7.0223">
        <ele>220</ele>
        <time>2011-06-22T09:42:56Z</time>
      </trkpt>
      <trkpt lat="43.60104" lon="7.02196">
        <ele>221</ele>
        <time>2011-06-22T09:43:06Z</time>
      </trkpt>
      <trkpt lat="43.60084" lon="7.02162">
        <ele>222</ele>
        <time>2011-06-22T09:43:16Z</time>
      </trkpt>
      <trkpt lat="43.60057" lon="7.02186">
        <ele>223</ele>
        <time>2011-06-22T09:43:26Z</time>
      </trkpt>
      <trkpt lat="43.60056" lon="7.02219">
        <ele>223</ele>
        <time>2011-06-22T09:43:36Z</time>
      </trkpt>
      <trkpt lat="43.60055" lon="7.02248">
        <ele>225</ele>
        <time>2011-06-22T09:43:46Z</time>
      </trkpt>
      <trkpt lat="43.60048" lon="7.02271">
        <ele>232</ele>
        <time>2011-06-22T09:43:56Z</time>
      </trkpt>
      <trkpt lat="43.60055" lon="7.02292">
        <ele>235</ele>
        <time>2011-06-22T09:44:06Z</time>
      </trkpt>
      <trkpt lat="43.60065" lon="7.02307">
        <ele>237</ele>
        <time>2011-06-22T09:44:16Z</time>
      </trkpt>
      <trkpt lat="43.60068" lon="7.02303">
        <ele>249</ele>
        <time>2011-06-22T09:44:28Z</time>
      </trkpt>
      <trkpt lat="43.60069" lon="7.02306">
        <ele>242</ele>
        <time>2011-06-22T09:44:38Z</time>
      </trkpt>
      <trkpt lat="43.60069" lon="7.02313">
        <ele>231</ele>
        <time>2011-06-22T09:44:49Z</time>
      </trkpt>
      <trkpt lat="43.60072" lon="7.02318">
        <ele>220</ele>
        <time>2011-06-22T09:45:00Z</time>
      </trkpt>
      <trkpt lat="43.60083" lon="7.02357">
        <ele>218</ele>
        <time>2011-06-22T09:45:12Z</time>
      </trkpt>
      <trkpt lat="43.60098" lon="7.02412">
        <ele>221</ele>
        <time>2011-06-22T09:45:22Z</time>
      </trkpt>
      <trkpt lat="43.60068" lon="7.02435">
        <ele>220</ele>
        <time>2011-06-22T09:45:32Z</time>
      </trkpt>
      <trkpt lat="43.60032" lon="7.02413">
        <ele>215</ele>
        <time>2011-06-22T09:45:42Z</time>
      </trkpt>
      <trkpt lat="43.60016" lon="7.02401">
        <ele>214</ele>
        <time>2011-06-22T09:45:52Z</time>
      </trkpt>
      <trkpt lat="43.6001" lon="7.0239">
        <ele>214</ele>
        <time>2011-06-22T09:46:02Z</time>
      </trkpt>
      <trkpt lat="43.59967" lon="7.02388">
        <ele>214</ele>
        <time>2011-06-22T09:46:13Z</time>
      </trkpt>
      <trkpt lat="43.59898" lon="7.02379">
        <ele>215</ele>
        <time>2011-06-22T09:46:23Z</time>
      </trkpt>
      <trkpt lat="43.59842" lon="7.02418">
        <ele>208</ele>
        <time>2011-06-22T09:46:33Z</time>
      </trkpt>
      <trkpt lat="43.59876" lon="7.02484">
        <ele>221</ele>
        <time>2011-06-22T09:46:46Z</time>
      </trkpt>
      <trkpt lat="43.599" lon="7.02527">
        <ele>221</ele>
        <time>2011-06-22T09:46:58Z</time>
      </trkpt>
      <trkpt lat="43.59909" lon="7.02605">
        <ele>216</ele>
        <time>2011-06-22T09:47:08Z</time>
      </trkpt>
      <trkpt lat="43.59889" lon="7.02643">
        <ele>212</ele>
        <time>2011-06-22T09:47:19Z</time>
      </trkpt>
      <trkpt lat="43.5988" lon="7.02661">
        <ele>211</ele>
        <time>2011-06-22T09:47:29Z</time>
      </trkpt>
      <trkpt lat="43.59842" lon="7.02678">
        <ele>204</ele>
        <time>2011-06-22T09:47:39Z</time>
      </trkpt>
      <trkpt lat="43.59787" lon="7.02667">
        <ele>199</ele>
        <time>2011-06-22T09:47:49Z</time>
      </trkpt>
      <trkpt lat="43.59745" lon="7.02612">
        <ele>191</ele>
        <time>2011-06-22T09:48:01Z</time>
      </trkpt>
      <trkpt lat="43.59682" lon="7.02651">
        <ele>191</ele>
        <time>2011-06-22T09:48:11Z</time>
      </trkpt>
      <trkpt lat="43.59669" lon="7.02678">
        <ele>197</ele>
        <time>2011-06-22T09:48:21Z</time>
      </trkpt>
      <trkpt lat="43.59673" lon="7.02681">
        <ele>197</ele>
        <time>2011-06-22T09:48:32Z</time>
      </trkpt>
      <trkpt lat="43.5967" lon="7.02679">
        <ele>197</ele>
        <time>2011-06-22T09:48:43Z</time>
      </trkpt>
      <trkpt lat="43.59672" lon="7.02684">
        <ele>205</ele>
        <time>2011-06-22T09:48:44Z</time>
      </trkpt>
      <trkpt lat="43.59681" lon="7.02718">
        <ele>205</ele>
        <time>2011-06-22T09:48:54Z</time>
      </trkpt>
      <trkpt lat="43.59696" lon="7.02757">
        <ele>204</ele>
        <time>2011-06-22T09:49:04Z</time>
      </trkpt>
      <trkpt lat="43.59719" lon="7.0282">
        <ele>199</ele>
        <time>2011-06-22T09:49:14Z</time>
      </trkpt>
      <trkpt lat="43.59719" lon="7.02894">
        <ele>190</ele>
        <time>2011-06-22T09:49:24Z</time>
      </trkpt>
      <trkpt lat="43.5969" lon="7.02948">
        <ele>188</ele>
        <time>2011-06-22T09:49:34Z</time>
      </trkpt>
      <trkpt lat="43.59706" lon="7.03002">
        <ele>181</ele>
        <time>2011-06-22T09:49:44Z</time>
      </trkpt>
      <trkpt lat="43.59711" lon="7.0306">
        <ele>181</ele>
        <time>2011-06-22T09:49:54Z</time>
      </trkpt>
      <trkpt lat="43.59711" lon="7.03124">
        <ele>187</ele>
        <time>2011-06-22T09:50:04Z</time>
      </trkpt>
      <trkpt lat="43.59731" lon="7.03186">
        <ele>188</ele>
        <time>2011-06-22T09:50:14Z</time>
      </trkpt>
      <trkpt lat="43.59744" lon="7.03223">
        <ele>188</ele>
        <time>2011-06-22T09:50:24Z</time>
      </trkpt>
      <trkpt lat="43.5975" lon="7.03244">
        <ele>188</ele>
        <time>2011-06-22T09:50:34Z</time>
      </trkpt>
      <trkpt lat="43.59768" lon="7.0329">
        <ele>188</ele>
        <time>2011-06-22T09:50:44Z</time>
      </trkpt>
      <trkpt lat="43.59786" lon="7.03333">
        <ele>182</ele>
        <time>2011-06-22T09:50:54Z</time>
      </trkpt>
      <trkpt lat="43.59788" lon="7.03387">
        <ele>179</ele>
        <time>2011-06-22T09:51:04Z</time>
      </trkpt>
      <trkpt lat="43.59804" lon="7.03439">
        <ele>179</ele>
        <time>2011-06-22T09:51:14Z</time>
      </trkpt>
      <trkpt lat="43.59813" lon="7.03472">
        <ele>179</ele>
        <time>2011-06-22T09:51:24Z</time>
      </trkpt>
      <trkpt lat="43.5983" lon="7.03484">
        <ele>179</ele>
        <time>2011-06-22T09:51:34Z</time>
      </trkpt>
      <trkpt lat="43.59825" lon="7.03504">
        <ele>180</ele>
        <time>2011-06-22T09:51:44Z</time>
      </trkpt>
      <trkpt lat="43.59812" lon="7.03536">
        <ele>190</ele>
        <time>2011-06-22T09:51:54Z</time>
      </trkpt>
      <trkpt lat="43.59797" lon="7.03563">
        <ele>200</ele>
        <time>2011-06-22T09:52:04Z</time>
      </trkpt>
      <trkpt lat="43.5978" lon="7.03596">
        <ele>210</ele>
        <time>2011-06-22T09:52:14Z</time>
      </trkpt>
      <trkpt lat="43.59769" lon="7.03627">
        <ele>216</ele>
        <time>2011-06-22T09:52:24Z</time>
      </trkpt>
      <trkpt lat="43.59765" lon="7.03656">
        <ele>213</ele>
        <time>2011-06-22T09:52:34Z</time>
      </trkpt>
      <trkpt lat="43.59765" lon="7.03683">
        <ele>208</ele>
        <time>2011-06-22T09:52:44Z</time>
      </trkpt>
      <trkpt lat="43.59767" lon="7.03689">
        <ele>196</ele>
        <time>2011-06-22T09:52:56Z</time>
      </trkpt>
      <trkpt lat="43.59765" lon="7.03689">
        <ele>202</ele>
        <time>2011-06-22T09:53:11Z</time>
      </trkpt>
      <trkpt lat="43.59762" lon="7.03681">
        <ele>212</ele>
        <time>2011-06-22T09:53:21Z</time>
      </trkpt>
      <trkpt lat="43.59751" lon="7.03685">
        <ele>216</ele>
        <time>2011-06-22T09:53:31Z</time>
      </trkpt>
      <trkpt lat="43.5972" lon="7.037">
        <ele>214</ele>
        <time>2011-06-22T09:53:41Z</time>
      </trkpt>
      <trkpt lat="43.59707" lon="7.03724">
        <ele>208</ele>
        <time>2011-06-22T09:53:51Z</time>
      </trkpt>
      <trkpt lat="43.59688" lon="7.03774">
        <ele>199</ele>
        <time>2011-06-22T09:54:01Z</time>
      </trkpt>
      <trkpt lat="43.59697" lon="7.03815">
        <ele>191</ele>
        <time>2011-06-22T09:54:11Z</time>
      </trkpt>
      <trkpt lat="43.59699" lon="7.03859">
        <ele>191</ele>
        <time>2011-06-22T09:54:21Z</time>
      </trkpt>
      <trkpt lat="43.59699" lon="7.03908">
        <ele>191</ele>
        <time>2011-06-22T09:54:31Z</time>
      </trkpt>
      <trkpt lat="43.59701" lon="7.03936">
        <ele>190</ele>
        <time>2011-06-22T09:54:41Z</time>
      </trkpt>
      <trkpt lat="43.5972" lon="7.03916">
        <ele>190</ele>
        <time>2011-06-22T09:54:51Z</time>
      </trkpt>
      <trkpt lat="43.59752" lon="7.03836">
        <ele>187</ele>
        <time>2011-06-22T09:55:01Z</time>
      </trkpt>
      <trkpt lat="43.59775" lon="7.03843">
        <ele>184</ele>
        <time>2011-06-22T09:55:11Z</time>
      </trkpt>
      <trkpt lat="43.59812" lon="7.03857">
        <ele>182</ele>
        <time>2011-06-22T09:55:21Z</time>
      </trkpt>
      <trkpt lat="43.5984" lon="7.03895">
        <ele>178</ele>
        <time>2011-06-22T09:55:31Z</time>
      </trkpt>
      <trkpt lat="43.59869" lon="7.03935">
        <ele>176</ele>
        <time>2011-06-22T09:55:41Z</time>
      </trkpt>
      <trkpt lat="43.59911" lon="7.03939">
        <ele>173</ele>
        <time>2011-06-22T09:55:51Z</time>
      </trkpt>
      <trkpt lat="43.5995" lon="7.0391">
        <ele>182</ele>
        <time>2011-06-22T09:56:01Z</time>
      </trkpt>
      <trkpt lat="43.59974" lon="7.03893">
        <ele>191</ele>
        <time>2011-06-22T09:56:11Z</time>
      </trkpt>
      <trkpt lat="43.6" lon="7.03875">
        <ele>193</ele>
        <time>2011-06-22T09:56:21Z</time>
      </trkpt>
      <trkpt lat="43.60036" lon="7.03861">
        <ele>194</ele>
        <time>2011-06-22T09:56:31Z</time>
      </trkpt>
      <trkpt lat="43.60085" lon="7.0384">
        <ele>192</ele>
        <time>2011-06-22T09:56:41Z</time>
      </trkpt>
      <trkpt lat="43.60144" lon="7.03808">
        <ele>182</ele>
        <time>2011-06-22T09:56:51Z</time>
      </trkpt>
      <trkpt lat="43.60168" lon="7.03822">
        <ele>177</ele>
        <time>2011-06-22T09:57:01Z</time>
      </trkpt>
      <trkpt lat="43.60155" lon="7.03886">
        <ele>172</ele>
        <time>2011-06-22T09:57:11Z</time>
      </trkpt>
      <trkpt lat="43.60131" lon="7.03944">
        <ele>172</ele>
        <time>2011-06-22T09:57:21Z</time>
      </trkpt>
      <trkpt lat="43.60142" lon="7.03991">
        <ele>167</ele>
        <time>2011-06-22T09:57:31Z</time>
      </trkpt>
      <trkpt lat="43.60141" lon="7.04042">
        <ele>169</ele>
        <time>2011-06-22T09:57:41Z</time>
      </trkpt>
      <trkpt lat="43.60127" lon="7.04081">
        <ele>171</ele>
        <time>2011-06-22T09:57:51Z</time>
      </trkpt>
      <trkpt lat="43.60106" lon="7.04112">
        <ele>176</ele>
        <time>2011-06-22T09:58:01Z</time>
      </trkpt>
      <trkpt lat="43.60107" lon="7.04148">
        <ele>182</ele>
        <time>2011-06-22T09:58:11Z</time>
      </trkpt>
      <trkpt lat="43.6009" lon="7.0418">
        <ele>184</ele>
        <time>2011-06-22T09:58:21Z</time>
      </trkpt>
      <trkpt lat="43.60079" lon="7.04208">
        <ele>194</ele>
        <time>2011-06-22T09:58:31Z</time>
      </trkpt>
      <trkpt lat="43.6008" lon="7.04221">
        <ele>195</ele>
        <time>2011-06-22T09:58:41Z</time>
      </trkpt>
      <trkpt lat="43.60082" lon="7.04228">
        <ele>195</ele>
        <time>2011-06-22T09:58:52Z</time>
      </trkpt>
      <trkpt lat="43.60084" lon="7.04231">
        <ele>193</ele>
        <time>2011-06-22T09:59:06Z</time>
      </trkpt>
      <trkpt lat="43.60082" lon="7.04232">
        <ele>192</ele>
        <time>2011-06-22T09:59:23Z</time>
      </trkpt>
      <trkpt lat="43.60081" lon="7.0423">
        <ele>189</ele>
        <time>2011-06-22T09:59:41Z</time>
      </trkpt>
      <trkpt lat="43.6008" lon="7.04228">
        <ele>191</ele>
        <time>2011-06-22T09:59:56Z</time>
      </trkpt>
      <trkpt lat="43.60082" lon="7.04231">
        <ele>191</ele>
        <time>2011-06-22T10:00:10Z</time>
      </trkpt>
      <trkpt lat="43.6008" lon="7.04261">
        <ele>191</ele>
        <time>2011-06-22T10:00:20Z</time>
      </trkpt>
      <trkpt lat="43.6007" lon="7.04307">
        <ele>189</ele>
        <time>2011-06-22T10:00:30Z</time>
      </trkpt>
      <trkpt lat="43.601" lon="7.04372">
        <ele>187</ele>
        <time>2011-06-22T10:00:40Z</time>
      </trkpt>
      <trkpt lat="43.60112" lon="7.04392">
        <ele>177</ele>
        <time>2011-06-22T10:00:50Z</time>
      </trkpt>
      <trkpt lat="43.60084" lon="7.04398">
        <ele>167</ele>
        <time>2011-06-22T10:01:00Z</time>
      </trkpt>
      <trkpt lat="43.60087" lon="7.0442">
        <ele>156</ele>
        <time>2011-06-22T10:01:11Z</time>
      </trkpt>
      <trkpt lat="43.60087" lon="7.04442">
        <ele>151</ele>
        <time>2011-06-22T10:01:21Z</time>
      </trkpt>
      <trkpt lat="43.6008" lon="7.04465">
        <ele>148</ele>
        <time>2011-06-22T10:01:31Z</time>
      </trkpt>
      <trkpt lat="43.60035" lon="7.04501">
        <ele>148</ele>
        <time>2011-06-22T10:01:41Z</time>
      </trkpt>
      <trkpt lat="43.60017" lon="7.04515">
        <ele>148</ele>
        <time>2011-06-22T10:01:54Z</time>
      </trkpt>
      <trkpt lat="43.60016" lon="7.04518">
        <ele>153</ele>
        <time>2011-06-22T10:02:07Z</time>
      </trkpt>
      <trkpt lat="43.60014" lon="7.04521">
        <ele>156</ele>
        <time>2011-06-22T10:02:32Z</time>
      </trkpt>
      <trkpt lat="43.60004" lon="7.04544">
        <ele>156</ele>
        <time>2011-06-22T10:02:42Z</time>
      </trkpt>
      <trkpt lat="43.60008" lon="7.04611">
        <ele>156</ele>
        <time>2011-06-22T10:02:52Z</time>
      </trkpt>
      <trkpt lat="43.60024" lon="7.04676">
        <ele>150</ele>
        <time>2011-06-22T10:03:02Z</time>
      </trkpt>
      <trkpt lat="43.60042" lon="7.0475">
        <ele>143</ele>
        <time>2011-06-22T10:03:12Z</time>
      </trkpt>
      <trkpt lat="43.60052" lon="7.04822">
        <ele>143</ele>
        <time>2011-06-22T10:03:22Z</time>
      </trkpt>
      <trkpt lat="43.60067" lon="7.04887">
        <ele>143</ele>
        <time>2011-06-22T10:03:32Z</time>
      </trkpt>
      <trkpt lat="43.60062" lon="7.04945">
        <ele>139</ele>
        <time>2011-06-22T10:03:42Z</time>
      </trkpt>
      <trkpt lat="43.6004" lon="7.0499">
        <ele>138</ele>
        <time>2011-06-22T10:03:52Z</time>
      </trkpt>
      <trkpt lat="43.60025" lon="7.05011">
        <ele>138</ele>
        <time>2011-06-22T10:04:02Z</time>
      </trkpt>
      <trkpt lat="43.60027" lon="7.05028">
        <ele>140</ele>
        <time>2011-06-22T10:04:13Z</time>
      </trkpt>
      <trkpt lat="43.6002" lon="7.05049">
        <ele>141</ele>
        <time>2011-06-22T10:04:23Z</time>
      </trkpt>
      <trkpt lat="43.60012" lon="7.05053">
        <ele>144</ele>
        <time>2011-06-22T10:04:34Z</time>
      </trkpt>
      <trkpt lat="43.60001" lon="7.05058">
        <ele>144</ele>
        <time>2011-06-22T10:04:44Z</time>
      </trkpt>
      <trkpt lat="43.60003" lon="7.05059">
        <ele>144</ele>
        <time>2011-06-22T10:04:55Z</time>
      </trkpt>
      <trkpt lat="43.60002" lon="7.05067">
        <ele>142</ele>
        <time>2011-06-22T10:05:05Z</time>
      </trkpt>
      <trkpt lat="43.59991" lon="7.0512">
        <ele>141</ele>
        <time>2011-06-22T10:05:15Z</time>
      </trkpt>
      <trkpt lat="43.60015" lon="7.05164">
        <ele>141</ele>
        <time>2011-06-22T10:05:25Z</time>
      </trkpt>
      <trkpt lat="43.60043" lon="7.05201">
        <ele>141</ele>
        <time>2011-06-22T10:05:35Z</time>
      </trkpt>
      <trkpt lat="43.60086" lon="7.05225">
        <ele>140</ele>
        <time>2011-06-22T10:05:45Z</time>
      </trkpt>
      <trkpt lat="43.60101" lon="7.0527">
        <ele>132</ele>
        <time>2011-06-22T10:05:55Z</time>
      </trkpt>
      <trkpt lat="43.60105" lon="7.05317">
        <ele>126</ele>
        <time>2011-06-22T10:06:05Z</time>
      </trkpt>
      <trkpt lat="43.60105" lon="7.05363">
        <ele>125</ele>
        <time>2011-06-22T10:06:15Z</time>
      </trkpt>
      <trkpt lat="43.60113" lon="7.05363">
        <ele>125</ele>
        <time>2011-06-22T10:06:27Z</time>
      </trkpt>
      <trkpt lat="43.60119" lon="7.05362">
        <ele>125</ele>
        <time>2011-06-22T10:06:40Z</time>
      </trkpt>
      <trkpt lat="43.60128" lon="7.0537">
        <ele>127</ele>
        <time>2011-06-22T10:06:51Z</time>
      </trkpt>
      <trkpt lat="43.60149" lon="7.0537">
        <ele>128</ele>
        <time>2011-06-22T10:07:01Z</time>
      </trkpt>
      <trkpt lat="43.60154" lon="7.05338">
        <ele>129</ele>
        <time>2011-06-22T10:07:11Z</time>
      </trkpt>
      <trkpt lat="43.60163" lon="7.05305">
        <ele>129</ele>
        <time>2011-06-22T10:07:21Z</time>
      </trkpt>
      <trkpt lat="43.60174" lon="7.05269">
        <ele>129</ele>
        <time>2011-06-22T10:07:31Z</time>
      </trkpt>
      <trkpt lat="43.60182" lon="7.05237">
        <ele>133</ele>
        <time>2011-06-22T10:07:41Z</time>
      </trkpt>
      <trkpt lat="43.60194" lon="7.05226">
        <ele>140</ele>
        <time>2011-06-22T10:07:51Z</time>
      </trkpt>
      <trkpt lat="43.60202" lon="7.05211">
        <ele>143</ele>
        <time>2011-06-22T10:08:01Z</time>
      </trkpt>
      <trkpt lat="43.60207" lon="7.05201">
        <ele>143</ele>
        <time>2011-06-22T10:08:11Z</time>
      </trkpt>
      <trkpt lat="43.60213" lon="7.05189">
        <ele>143</ele>
        <time>2011-06-22T10:08:22Z</time>
      </trkpt>
      <trkpt lat="43.60214" lon="7.05184">
        <ele>143</ele>
        <time>2011-06-22T10:08:32Z</time>
      </trkpt>
      <trkpt lat="43.6021" lon="7.05176">
        <ele>143</ele>
        <time>2011-06-22T10:08:42Z</time>
      </trkpt>
      <trkpt lat="43.60202" lon="7.05152">
        <ele>143</ele>
        <time>2011-06-22T10:08:52Z</time>
      </trkpt>
      <trkpt lat="43.60197" lon="7.05125">
        <ele>147</ele>
        <time>2011-06-22T10:09:02Z</time>
      </trkpt>
      <trkpt lat="43.602" lon="7.05092">
        <ele>149</ele>
        <time>2011-06-22T10:09:12Z</time>
      </trkpt>
      <trkpt lat="43.6021" lon="7.0506">
        <ele>152</ele>
        <time>2011-06-22T10:09:22Z</time>
      </trkpt>
      <trkpt lat="43.60236" lon="7.05063">
        <ele>153</ele>
        <time>2011-06-22T10:09:32Z</time>
      </trkpt>
      <trkpt lat="43.60264" lon="7.05061">
        <ele>153</ele>
        <time>2011-06-22T10:09:42Z</time>
      </trkpt>
      <trkpt lat="43.60289" lon="7.05033">
        <ele>153</ele>
        <time>2011-06-22T10:09:52Z</time>
      </trkpt>
      <trkpt lat="43.60319" lon="7.05017">
        <ele>159</ele>
        <time>2011-06-22T10:10:02Z</time>
      </trkpt>
      <trkpt lat="43.6036" lon="7.0498">
        <ele>162</ele>
        <time>2011-06-22T10:10:12Z</time>
      </trkpt>
      <trkpt lat="43.60381" lon="7.04962">
        <ele>164</ele>
        <time>2011-06-22T10:10:22Z</time>
      </trkpt>
      <trkpt lat="43.60387" lon="7.04955">
        <ele>165</ele>
        <time>2011-06-22T10:10:34Z</time>
      </trkpt>
      <trkpt lat="43.60389" lon="7.0495">
        <ele>165</ele>
        <time>2011-06-22T10:10:49Z</time>
      </trkpt>
      <trkpt lat="43.60393" lon="7.04948">
        <ele>158</ele>
        <time>2011-06-22T10:11:05Z</time>
      </trkpt>
      <trkpt lat="43.60392" lon="7.04947">
        <ele>157</ele>
        <time>2011-06-22T10:11:17Z</time>
      </trkpt>
      <trkpt lat="43.60393" lon="7.04941">
        <ele>157</ele>
        <time>2011-06-22T10:11:27Z</time>
      </trkpt>
      <trkpt lat="43.60394" lon="7.04941">
        <ele>154</ele>
        <time>2011-06-22T10:11:41Z</time>
      </trkpt>
      <trkpt lat="43.60394" lon="7.04942">
        <ele>154</ele>
        <time>2011-06-22T10:11:54Z</time>
      </trkpt>
      <trkpt lat="43.60388" lon="7.04945">
        <ele>154</ele>
        <time>2011-06-22T10:12:05Z</time>
      </trkpt>
      <trkpt lat="43.60383" lon="7.04937">
        <ele>157</ele>
        <time>2011-06-22T10:12:25Z</time>
      </trkpt>
      <trkpt lat="43.60378" lon="7.04931">
        <ele>162</ele>
        <time>2011-06-22T10:12:36Z</time>
      </trkpt>
      <trkpt lat="43.60373" lon="7.04937">
        <ele>171</ele>
        <time>2011-06-22T10:12:48Z</time>
      </trkpt>
      <trkpt lat="43.60374" lon="7.04942">
        <ele>169</ele>
        <time>2011-06-22T10:12:59Z</time>
      </trkpt>
      <trkpt lat="43.60372" lon="7.04943">
        <ele>169</ele>
        <time>2011-06-22T10:13:14Z</time>
      </trkpt>
      <trkpt lat="43.6037" lon="7.04942">
        <ele>166</ele>
        <time>2011-06-22T10:13:24Z</time>
      </trkpt>
      <trkpt lat="43.60366" lon="7.0494">
        <ele>166</ele>
        <time>2011-06-22T10:13:39Z</time>
      </trkpt>
      <trkpt lat="43.60368" lon="7.04941">
        <ele>169</ele>
        <time>2011-06-22T10:13:50Z</time>
      </trkpt>
      <trkpt lat="43.60378" lon="7.04935">
        <ele>167</ele>
        <time>2011-06-22T10:14:03Z</time>
      </trkpt>
      <trkpt lat="43.60388" lon="7.04934">
        <ele>168</ele>
        <time>2011-06-22T10:14:19Z</time>
      </trkpt>
      <trkpt lat="43.60387" lon="7.04929">
        <ele>174</ele>
        <time>2011-06-22T10:14:30Z</time>
      </trkpt>
      <trkpt lat="43.60391" lon="7.04927">
        <ele>174</ele>
        <time>2011-06-22T10:14:41Z</time>
      </trkpt>
      <trkpt lat="43.60387" lon="7.04921">
        <ele>174</ele>
        <time>2011-06-22T10:14:51Z</time>
      </trkpt>
      <trkpt lat="43.60384" lon="7.04919">
        <ele>181</ele>
        <time>2011-06-22T10:15:05Z</time>
      </trkpt>
      <trkpt lat="43.60391" lon="7.04925">
        <ele>174</ele>
        <time>2011-06-22T10:15:16Z</time>
      </trkpt>
      <trkpt lat="43.6039" lon="7.04922">
        <ele>168</ele>
        <time>2011-06-22T10:15:28Z</time>
      </trkpt>
      <trkpt lat="43.60384" lon="7.04924">
        <ele>178</ele>
        <time>2011-06-22T10:15:43Z</time>
      </trkpt>
      <trkpt lat="43.60387" lon="7.04926">
        <ele>181</ele>
        <time>2011-06-22T10:15:55Z</time>
      </trkpt>
      <trkpt lat="43.60384" lon="7.04919">
        <ele>175</ele>
        <time>2011-06-22T10:16:05Z</time>
      </trkpt>
      <trkpt lat="43.60368" lon="7.04906">
        <ele>164</ele>
        <time>2011-06-22T10:16:15Z</time>
      </trkpt>
      <trkpt lat="43.60348" lon="7.04894">
        <ele>159</ele>
        <time>2011-06-22T10:16:26Z</time>
      </trkpt>
      <trkpt lat="43.60329" lon="7.04873">
        <ele>163</ele>
        <time>2011-06-22T10:16:36Z</time>
      </trkpt>
      <trkpt lat="43.60315" lon="7.04843">
        <ele>164</ele>
        <time>2011-06-22T10:16:46Z</time>
      </trkpt>
      <trkpt lat="43.60316" lon="7.0482">
        <ele>164</ele>
        <time>2011-06-22T10:16:57Z</time>
      </trkpt>
      <trkpt lat="43.60328" lon="7.04809">
        <ele>166</ele>
        <time>2011-06-22T10:17:07Z</time>
      </trkpt>
      <trkpt lat="43.60336" lon="7.04789">
        <ele>177</ele>
        <time>2011-06-22T10:17:18Z</time>
      </trkpt>
      <trkpt lat="43.60334" lon="7.04766">
        <ele>181</ele>
        <time>2011-06-22T10:17:28Z</time>
      </trkpt>
      <trkpt lat="43.60328" lon="7.04747">
        <ele>180</ele>
        <time>2011-06-22T10:17:38Z</time>
      </trkpt>
      <trkpt lat="43.60324" lon="7.04732">
        <ele>180</ele>
        <time>2011-06-22T10:17:48Z</time>
      </trkpt>
      <trkpt lat="43.60316" lon="7.0472">
        <ele>185</ele>
        <time>2011-06-22T10:17:58Z</time>
      </trkpt>
      <trkpt lat="43.603" lon="7.04707">
        <ele>185</ele>
        <time>2011-06-22T10:18:08Z</time>
      </trkpt>
      <trkpt lat="43.60288" lon="7.04695">
        <ele>185</ele>
        <time>2011-06-22T10:18:18Z</time>
      </trkpt>
      <trkpt lat="43.60282" lon="7.04687">
        <ele>187</ele>
        <time>2011-06-22T10:18:28Z</time>
      </trkpt>
      <trkpt lat="43.60287" lon="7.04687">
        <ele>196</ele>
        <time>2011-06-22T10:18:39Z</time>
      </trkpt>
      <trkpt lat="43.60298" lon="7.04689">
        <ele>197</ele>
        <time>2011-06-22T10:18:49Z</time>
      </trkpt>
      <trkpt lat="43.60314" lon="7.04686">
        <ele>200</ele>
        <time>2011-06-22T10:18:59Z</time>
      </trkpt>
      <trkpt lat="43.60329" lon="7.04681">
        <ele>201</ele>
        <time>2011-06-22T10:19:09Z</time>
      </trkpt>
      <trkpt lat="43.60341" lon="7.04664">
        <ele>201</ele>
        <time>2011-06-22T10:19:19Z</time>
      </trkpt>
      <trkpt lat="43.60346" lon="7.0465">
        <ele>198</ele>
        <time>2011-06-22T10:19:30Z</time>
      </trkpt>
      <trkpt lat="43.60343" lon="7.04637">
        <ele>198</ele>
        <time>2011-06-22T10:19:41Z</time>
      </trkpt>
      <trkpt lat="43.60342" lon="7.04627">
        <ele>198</ele>
        <time>2011-06-22T10:19:51Z</time>
      </trkpt>
      <trkpt lat="43.60348" lon="7.04623">
        <ele>205</ele>
        <time>2011-06-22T10:20:03Z</time>
      </trkpt>
      <trkpt lat="43.60348" lon="7.04621">
        <ele>206</ele>
        <time>2011-06-22T10:20:13Z</time>
      </trkpt>
      <trkpt lat="43.60355" lon="7.04628">
        <ele>206</ele>
        <time>2011-06-22T10:20:24Z</time>
      </trkpt>
      <trkpt lat="43.60374" lon="7.04607">
        <ele>208</ele>
        <time>2011-06-22T10:20:34Z</time>
      </trkpt>
      <trkpt lat="43.60383" lon="7.04576">
        <ele>207</ele>
        <time>2011-06-22T10:20:44Z</time>
      </trkpt>
      <trkpt lat="43.6038" lon="7.04552">
        <ele>206</ele>
        <time>2011-06-22T10:20:54Z</time>
      </trkpt>
      <trkpt lat="43.60374" lon="7.04548">
        <ele>206</ele>
        <time>2011-06-22T10:21:04Z</time>
      </trkpt>
      <trkpt lat="43.6037" lon="7.04546">
        <ele>210</ele>
        <time>2011-06-22T10:21:18Z</time>
      </trkpt>
      <trkpt lat="43.60365" lon="7.04545">
        <ele>212</ele>
        <time>2011-06-22T10:21:30Z</time>
      </trkpt>
      <trkpt lat="43.60374" lon="7.04546">
        <ele>213</ele>
        <time>2011-06-22T10:21:42Z</time>
      </trkpt>
      <trkpt lat="43.60372" lon="7.04543">
        <ele>213</ele>
        <time>2011-06-22T10:21:52Z</time>
      </trkpt>
      <trkpt lat="43.60367" lon="7.04543">
        <ele>212</ele>
        <time>2011-06-22T10:22:03Z</time>
      </trkpt>
      <trkpt lat="43.60365" lon="7.04547">
        <ele>212</ele>
        <time>2011-06-22T10:22:17Z</time>
      </trkpt>
      <trkpt lat="43.60358" lon="7.04522">
        <ele>209</ele>
        <time>2011-06-22T10:22:27Z</time>
      </trkpt>
      <trkpt lat="43.60363" lon="7.04468">
        <ele>204</ele>
        <time>2011-06-22T10:22:37Z</time>
      </trkpt>
      <trkpt lat="43.60385" lon="7.04405">
        <ele>201</ele>
        <time>2011-06-22T10:22:47Z</time>
      </trkpt>
      <trkpt lat="43.60385" lon="7.04354">
        <ele>201</ele>
        <time>2011-06-22T10:22:57Z</time>
      </trkpt>
      <trkpt lat="43.60377" lon="7.04286">
        <ele>201</ele>
        <time>2011-06-22T10:23:07Z</time>
      </trkpt>
      <trkpt lat="43.60336" lon="7.0425">
        <ele>201</ele>
        <time>2011-06-22T10:23:17Z</time>
      </trkpt>
      <trkpt lat="43.6028" lon="7.04207">
        <ele>205</ele>
        <time>2011-06-22T10:23:27Z</time>
      </trkpt>
      <trkpt lat="43.60264" lon="7.04162">
        <ele>202</ele>
        <time>2011-06-22T10:23:38Z</time>
      </trkpt>
      <trkpt lat="43.60271" lon="7.04146">
        <ele>197</ele>
        <time>2011-06-22T10:23:50Z</time>
      </trkpt>
      <trkpt lat="43.60299" lon="7.04143">
        <ele>195</ele>
        <time>2011-06-22T10:24:00Z</time>
      </trkpt>
      <trkpt lat="43.60332" lon="7.04174">
        <ele>195</ele>
        <time>2011-06-22T10:24:10Z</time>
      </trkpt>
      <trkpt lat="43.60355" lon="7.042">
        <ele>195</ele>
        <time>2011-06-22T10:24:20Z</time>
      </trkpt>
      <trkpt lat="43.60382" lon="7.04217">
        <ele>196</ele>
        <time>2011-06-22T10:24:30Z</time>
      </trkpt>
      <trkpt lat="43.60401" lon="7.04241">
        <ele>200</ele>
        <time>2011-06-22T10:24:40Z</time>
      </trkpt>
      <trkpt lat="43.60428" lon="7.04272">
        <ele>200</ele>
        <time>2011-06-22T10:24:50Z</time>
      </trkpt>
      <trkpt lat="43.60439" lon="7.04291">
        <ele>199</ele>
        <time>2011-06-22T10:25:00Z</time>
      </trkpt>
      <trkpt lat="43.60451" lon="7.04328">
        <ele>199</ele>
        <time>2011-06-22T10:25:10Z</time>
      </trkpt>
      <trkpt lat="43.60464" lon="7.04359">
        <ele>199</ele>
        <time>2011-06-22T10:25:20Z</time>
      </trkpt>
      <trkpt lat="43.60476" lon="7.0439">
        <ele>195</ele>
        <time>2011-06-22T10:25:30Z</time>
      </trkpt>
      <trkpt lat="43.60473" lon="7.0442">
        <ele>192</ele>
        <time>2011-06-22T10:25:40Z</time>
      </trkpt>
      <trkpt lat="43.60478" lon="7.04455">
        <ele>191</ele>
        <time>2011-06-22T10:25:50Z</time>
      </trkpt>
      <trkpt lat="43.60484" lon="7.04488">
        <ele>188</ele>
        <time>2011-06-22T10:26:00Z</time>
      </trkpt>
      <trkpt lat="43.60513" lon="7.04523">
        <ele>185</ele>
        <time>2011-06-22T10:26:10Z</time>
      </trkpt>
      <trkpt lat="43.60543" lon="7.0458">
        <ele>181</ele>
        <time>2011-06-22T10:26:20Z</time>
      </trkpt>
      <trkpt lat="43.60553" lon="7.04637">
        <ele>175</ele>
        <time>2011-06-22T10:26:30Z</time>
      </trkpt>
      <trkpt lat="43.60539" lon="7.04706">
        <ele>171</ele>
        <time>2011-06-22T10:26:40Z</time>
      </trkpt>
      <trkpt lat="43.60523" lon="7.04746">
        <ele>168</ele>
        <time>2011-06-22T10:26:50Z</time>
      </trkpt>
      <trkpt lat="43.60512" lon="7.04798">
        <ele>168</ele>
        <time>2011-06-22T10:27:00Z</time>
      </trkpt>
      <trkpt lat="43.6048" lon="7.04841">
        <ele>169</ele>
        <time>2011-06-22T10:27:10Z</time>
      </trkpt>
      <trkpt lat="43.60447" lon="7.04896">
        <ele>169</ele>
        <time>2011-06-22T10:27:20Z</time>
      </trkpt>
      <trkpt lat="43.60417" lon="7.04933">
        <ele>165</ele>
        <time>2011-06-22T10:27:30Z</time>
      </trkpt>
      <trkpt lat="43.60411" lon="7.04956">
        <ele>163</ele>
        <time>2011-06-22T10:27:40Z</time>
      </trkpt>
      <trkpt lat="43.60415" lon="7.04955">
        <ele>154</ele>
        <time>2011-06-22T10:27:50Z</time>
      </trkpt>
      <trkpt lat="43.60419" lon="7.04957">
        <ele>159</ele>
        <time>2011-06-22T10:28:09Z</time>
      </trkpt>
      <trkpt lat="43.60419" lon="7.0496">
        <ele>165</ele>
        <time>2011-06-22T10:28:24Z</time>
      </trkpt>
      <trkpt lat="43.60417" lon="7.0496">
        <ele>165</ele>
        <time>2011-06-22T10:28:36Z</time>
      </trkpt>
      <trkpt lat="43.60416" lon="7.04958">
        <ele>165</ele>
        <time>2011-06-22T10:28:48Z</time>
      </trkpt>
      <trkpt lat="43.60417" lon="7.04956">
        <ele>165</ele>
        <time>2011-06-22T10:28:58Z</time>
      </trkpt>
      <trkpt lat="43.60419" lon="7.04958">
        <ele>168</ele>
        <time>2011-06-22T10:29:09Z</time>
      </trkpt>
      <trkpt lat="43.6042" lon="7.04958">
        <ele>168</ele>
        <time>2011-06-22T10:29:23Z</time>
      </trkpt>
      <trkpt lat="43.60417" lon="7.04959">
        <ele>168</ele>
        <time>2011-06-22T10:29:37Z</time>
      </trkpt>
      <trkpt lat="43.60414" lon="7.04959">
        <ele>171</ele>
        <time>2011-06-22T10:29:51Z</time>
      </trkpt>
      <trkpt lat="43.60413" lon="7.04962">
        <ele>172</ele>
        <time>2011-06-22T10:30:03Z</time>
      </trkpt>
      <trkpt lat="43.60417" lon="7.0496">
        <ele>160</ele>
        <time>2011-06-22T10:30:18Z</time>
      </trkpt>
      <trkpt lat="43.60421" lon="7.04961">
        <ele>159</ele>
        <time>2011-06-22T10:30:29Z</time>
      </trkpt>
      <trkpt lat="43.6042" lon="7.04961">
        <ele>160</ele>
        <time>2011-06-22T10:30:54Z</time>
      </trkpt>
      <trkpt lat="43.60419" lon="7.04963">
        <ele>159</ele>
        <time>2011-06-22T10:31:09Z</time>
      </trkpt>
      <trkpt lat="43.60419" lon="7.04962">
        <ele>159</ele>
        <time>2011-06-22T10:31:19Z</time>
      </trkpt>
      <trkpt lat="43.60416" lon="7.04963">
        <ele>159</ele>
        <time>2011-06-22T10:31:30Z</time>
      </trkpt>
      <trkpt lat="43.6042" lon="7.04963">
        <ele>161</ele>
        <time>2011-06-22T10:31:41Z</time>
      </trkpt>
      <trkpt lat="43.60425" lon="7.04968">
        <ele>170</ele>
        <time>2011-06-22T10:31:51Z</time>
      </trkpt>
      <trkpt lat="43.60433" lon="7.04975">
        <ele>166</ele>
        <time>2011-06-22T10:32:05Z</time>
      </trkpt>
      <trkpt lat="43.60444" lon="7.04972">
        <ele>165</ele>
        <time>2011-06-22T10:32:15Z</time>
      </trkpt>
      <trkpt lat="43.60472" lon="7.04979">
        <ele>160</ele>
        <time>2011-06-22T10:32:25Z</time>
      </trkpt>
      <trkpt lat="43.60521" lon="7.04976">
        <ele>160</ele>
        <time>2011-06-22T10:32:35Z</time>
      </trkpt>
      <trkpt lat="43.60541" lon="7.04945">
        <ele>160</ele>
        <time>2011-06-22T10:32:45Z</time>
      </trkpt>
      <trkpt lat="43.60576" lon="7.04911">
        <ele>163</ele>
        <time>2011-06-22T10:32:55Z</time>
      </trkpt>
      <trkpt lat="43.60602" lon="7.04869">
        <ele>162</ele>
        <time>2011-06-22T10:33:05Z</time>
      </trkpt>
      <trkpt lat="43.60613" lon="7.04845">
        <ele>154</ele>
        <time>2011-06-22T10:33:16Z</time>
      </trkpt>
      <trkpt lat="43.60625" lon="7.0483">
        <ele>154</ele>
        <time>2011-06-22T10:33:26Z</time>
      </trkpt>
      <trkpt lat="43.6065" lon="7.04804">
        <ele>154</ele>
        <time>2011-06-22T10:33:36Z</time>
      </trkpt>
      <trkpt lat="43.60678" lon="7.04777">
        <ele>157</ele>
        <time>2011-06-22T10:33:46Z</time>
      </trkpt>
      <trkpt lat="43.60689" lon="7.0476">
        <ele>156</ele>
        <time>2011-06-22T10:33:56Z</time>
      </trkpt>
      <trkpt lat="43.60699" lon="7.04742">
        <ele>149</ele>
        <time>2011-06-22T10:34:07Z</time>
      </trkpt>
      <trkpt lat="43.60707" lon="7.04728">
        <ele>149</ele>
        <time>2011-06-22T10:34:18Z</time>
      </trkpt>
      <trkpt lat="43.60719" lon="7.04696">
        <ele>149</ele>
        <time>2011-06-22T10:34:28Z</time>
      </trkpt>
      <trkpt lat="43.60737" lon="7.04636">
        <ele>151</ele>
        <time>2011-06-22T10:34:38Z</time>
      </trkpt>
      <trkpt lat="43.60764" lon="7.04602">
        <ele>152</ele>
        <time>2011-06-22T10:34:48Z</time>
      </trkpt>
      <trkpt lat="43.60794" lon="7.04588">
        <ele>153</ele>
        <time>2011-06-22T10:34:58Z</time>
      </trkpt>
      <trkpt lat="43.60819" lon="7.0457">
        <ele>155</ele>
        <time>2011-06-22T10:35:08Z</time>
      </trkpt>
      <trkpt lat="43.60832" lon="7.04587">
        <ele>155</ele>
        <time>2011-06-22T10:35:18Z</time>
      </trkpt>
      <trkpt lat="43.60827" lon="7.04622">
        <ele>155</ele>
        <time>2011-06-22T10:35:28Z</time>
      </trkpt>
      <trkpt lat="43.60838" lon="7.04683">
        <ele>156</ele>
        <time>2011-06-22T10:35:38Z</time>
      </trkpt>
      <trkpt lat="43.60866" lon="7.04734">
        <ele>154</ele>
        <time>2011-06-22T10:35:48Z</time>
      </trkpt>
      <trkpt lat="43.60899" lon="7.04751">
        <ele>154</ele>
        <time>2011-06-22T10:35:58Z</time>
      </trkpt>
      <trkpt lat="43.60946" lon="7.04726">
        <ele>154</ele>
        <time>2011-06-22T10:36:08Z</time>
      </trkpt>
      <trkpt lat="43.60989" lon="7.04665">
        <ele>154</ele>
        <time>2011-06-22T10:36:18Z</time>
      </trkpt>
      <trkpt lat="43.61041" lon="7.04633">
        <ele>154</ele>
        <time>2011-06-22T10:36:28Z</time>
      </trkpt>
      <trkpt lat="43.61081" lon="7.04629">
        <ele>157</ele>
        <time>2011-06-22T10:36:38Z</time>
      </trkpt>
      <trkpt lat="43.61073" lon="7.04703">
        <ele>152</ele>
        <time>2011-06-22T10:36:48Z</time>
      </trkpt>
      <trkpt lat="43.61084" lon="7.04758">
        <ele>145</ele>
        <time>2011-06-22T10:36:58Z</time>
      </trkpt>
      <trkpt lat="43.61092" lon="7.04767">
        <ele>142</ele>
        <time>2011-06-22T10:37:09Z</time>
      </trkpt>
      <trkpt lat="43.61102" lon="7.04773">
        <ele>142</ele>
        <time>2011-06-22T10:37:19Z</time>
      </trkpt>
      <trkpt lat="43.6113" lon="7.04782">
        <ele>145</ele>
        <time>2011-06-22T10:37:29Z</time>
      </trkpt>
      <trkpt lat="43.61166" lon="7.0478">
        <ele>150</ele>
        <time>2011-06-22T10:37:39Z</time>
      </trkpt>
      <trkpt lat="43.61186" lon="7.04753">
        <ele>150</ele>
        <time>2011-06-22T10:37:52Z</time>
      </trkpt>
      <trkpt lat="43.61189" lon="7.04746">
        <ele>150</ele>
        <time>2011-06-22T10:38:02Z</time>
      </trkpt>
      <trkpt lat="43.61204" lon="7.04726">
        <ele>150</ele>
        <time>2011-06-22T10:38:13Z</time>
      </trkpt>
      <trkpt lat="43.61206" lon="7.04728">
        <ele>151</ele>
        <time>2011-06-22T10:38:25Z</time>
      </trkpt>
      <trkpt lat="43.61208" lon="7.04725">
        <ele>153</ele>
        <time>2011-06-22T10:38:36Z</time>
      </trkpt>
      <trkpt lat="43.61207" lon="7.04726">
        <ele>153</ele>
        <time>2011-06-22T10:38:46Z</time>
      </trkpt>
      <trkpt lat="43.6124" lon="7.0473">
        <ele>153</ele>
        <time>2011-06-22T10:38:56Z</time>
      </trkpt>
      <trkpt lat="43.61258" lon="7.04707">
        <ele>156</ele>
        <time>2011-06-22T10:39:07Z</time>
      </trkpt>
      <trkpt lat="43.61264" lon="7.04693">
        <ele>154</ele>
        <time>2011-06-22T10:39:17Z</time>
      </trkpt>
      <trkpt lat="43.61282" lon="7.04661">
        <ele>154</ele>
        <time>2011-06-22T10:39:27Z</time>
      </trkpt>
      <trkpt lat="43.61294" lon="7.04613">
        <ele>148</ele>
        <time>2011-06-22T10:39:37Z</time>
      </trkpt>
      <trkpt lat="43.61306" lon="7.04574">
        <ele>147</ele>
        <time>2011-06-22T10:39:47Z</time>
      </trkpt>
      <trkpt lat="43.61312" lon="7.0454">
        <ele>147</ele>
        <time>2011-06-22T10:39:57Z</time>
      </trkpt>
      <trkpt lat="43.61316" lon="7.04533">
        <ele>151</ele>
        <time>2011-06-22T10:40:07Z</time>
      </trkpt>
      <trkpt lat="43.61318" lon="7.04482">
        <ele>154</ele>
        <time>2011-06-22T10:40:17Z</time>
      </trkpt>
      <trkpt lat="43.61345" lon="7.04427">
        <ele>153</ele>
        <time>2011-06-22T10:40:27Z</time>
      </trkpt>
      <trkpt lat="43.61351" lon="7.04401">
        <ele>149</ele>
        <time>2011-06-22T10:40:37Z</time>
      </trkpt>
      <trkpt lat="43.61361" lon="7.04381">
        <ele>147</ele>
        <time>2011-06-22T10:40:48Z</time>
      </trkpt>
      <trkpt lat="43.61371" lon="7.04359">
        <ele>144</ele>
        <time>2011-06-22T10:40:58Z</time>
      </trkpt>
      <trkpt lat="43.61381" lon="7.04311">
        <ele>140</ele>
        <time>2011-06-22T10:41:08Z</time>
      </trkpt>
      <trkpt lat="43.61386" lon="7.04299">
        <ele>138</ele>
        <time>2011-06-22T10:41:19Z</time>
      </trkpt>
      <trkpt lat="43.61398" lon="7.04322">
        <ele>134</ele>
        <time>2011-06-22T10:41:29Z</time>
      </trkpt>
      <trkpt lat="43.61442" lon="7.04284">
        <ele>134</ele>
        <time>2011-06-22T10:41:39Z</time>
      </trkpt>
      <trkpt lat="43.6147" lon="7.04243">
        <ele>132</ele>
        <time>2011-06-22T10:41:49Z</time>
      </trkpt>
      <trkpt lat="43.61497" lon="7.04192">
        <ele>130</ele>
        <time>2011-06-22T10:41:59Z</time>
      </trkpt>
      <trkpt lat="43.6153" lon="7.04183">
        <ele>129</ele>
        <time>2011-06-22T10:42:12Z</time>
      </trkpt>
      <trkpt lat="43.61561" lon="7.04168">
        <ele>129</ele>
        <time>2011-06-22T10:42:22Z</time>
      </trkpt>
      <trkpt lat="43.61577" lon="7.04151">
        <ele>136</ele>
        <time>2011-06-22T10:42:34Z</time>
      </trkpt>
      <trkpt lat="43.61579" lon="7.04149">
        <ele>136</ele>
        <time>2011-06-22T10:42:44Z</time>
      </trkpt>
      <trkpt lat="43.61575" lon="7.04145">
        <ele>136</ele>
        <time>2011-06-22T10:42:55Z</time>
      </trkpt>
      <trkpt lat="43.61575" lon="7.04145">
        <ele>136</ele>
        <time>2011-06-22T10:42:55Z</time>
      </trkpt>
    </trkseg>
  </trk>
</gpx>